createdAt,value
2018-08-14T00:00:30.249Z,3.50
2018-08-14T00:02:59.316Z,2.77
2018-08-14T00:05:29.462Z,2.53
2018-08-14T00:07:58.074Z,3.23
2018-08-14T00:10:26.959Z,3.50
2018-08-14T00:12:55.520Z,3.20
2018-08-14T00:15:24.247Z,3.70
2018-08-14T00:17:53.067Z,2.87
2018-08-14T00:20:22.618Z,4.33
2018-08-14T00:22:51.246Z,5.00
2018-08-14T00:25:19.920Z,3.00
2018-08-14T00:27:51.075Z,4.33
2018-08-14T00:30:21.189Z,2.50
2018-08-14T00:32:50.651Z,3.50
2018-08-14T00:35:19.666Z,3.57
2018-08-14T00:37:48.353Z,2.97
2018-08-14T00:40:19.238Z,2.90
2018-08-14T00:42:49.372Z,3.80
2018-08-14T00:45:19.836Z,3.10
2018-08-14T00:47:48.938Z,3.37
2018-08-14T00:50:17.864Z,3.10
2018-08-14T00:52:46.682Z,4.30
2018-08-14T00:55:16.872Z,4.13
2018-08-14T00:57:45.787Z,4.93
2018-08-14T01:00:20.253Z,3.40
2018-08-14T01:02:49.471Z,5.47
2018-08-14T01:05:18.506Z,3.80
2018-08-14T01:07:47.479Z,4.27
2018-08-14T01:10:16.949Z,5.50
2018-08-14T01:12:47.361Z,5.13
2018-08-14T01:15:17.404Z,4.93
2018-08-14T01:17:51.057Z,4.43
2018-08-14T01:20:21.133Z,5.90
2018-08-14T01:22:50.053Z,4.33
2018-08-14T01:25:19.429Z,4.77
2018-08-14T01:27:49.214Z,4.40
2018-08-14T01:30:20.387Z,5.07
2018-08-14T01:32:49.434Z,5.63
2018-08-14T01:35:18.631Z,5.87
2018-08-14T01:37:48.252Z,4.03
2018-08-14T01:40:17.242Z,5.47
2018-08-14T01:42:47.103Z,5.33
2018-08-14T01:45:16.146Z,6.30
2018-08-14T01:47:45.034Z,5.97
2018-08-14T01:50:18.744Z,5.03
2018-08-14T01:52:48.108Z,4.70
2018-08-14T01:55:17.636Z,7.57
2018-08-14T01:57:46.689Z,6.87
2018-08-14T02:00:15.280Z,4.60
2018-08-14T02:02:44.382Z,5.27
2018-08-14T02:05:13.350Z,5.93
2018-08-14T02:07:45.139Z,5.97
2018-08-14T02:10:15.623Z,4.83
2018-08-14T02:12:44.561Z,7.17
2018-08-14T02:15:15.004Z,5.63
2018-08-14T02:17:45.635Z,3.90
2018-08-14T02:20:18.374Z,5.93
2018-08-14T02:22:47.418Z,4.23
2018-08-14T02:25:17.737Z,4.47
2018-08-14T02:27:47.641Z,4.37
2018-08-14T02:30:16.882Z,4.53
2018-08-14T02:32:45.696Z,5.20
2018-08-14T02:35:14.403Z,5.07
2018-08-14T02:37:43.595Z,3.90
2018-08-14T02:40:20.042Z,5.10
2018-08-14T02:42:49.348Z,3.97
2018-08-14T02:45:18.583Z,3.90
2018-08-14T02:47:47.415Z,4.83
2018-08-14T02:50:17.361Z,4.33
2018-08-14T02:52:47.221Z,5.23
2018-08-14T02:55:19.494Z,6.10
2018-08-14T02:57:49.800Z,5.13
2018-08-14T03:00:23.777Z,5.07
2018-08-14T03:02:52.916Z,7.23
2018-08-14T03:05:22.351Z,6.73
2018-08-14T03:07:51.391Z,6.00
2018-08-14T03:10:20.067Z,7.20
2018-08-14T03:12:49.005Z,4.77
2018-08-14T03:15:19.221Z,4.70
2018-08-14T03:17:56.112Z,5.80
2018-08-14T03:20:24.758Z,4.00
2018-08-14T03:22:53.641Z,6.47
2018-08-14T03:25:22.517Z,4.20
2018-08-14T03:27:51.237Z,4.50
2018-08-14T03:30:19.941Z,6.40
2018-08-14T03:32:48.577Z,4.33
2018-08-14T03:35:17.837Z,5.63
2018-08-14T03:37:46.445Z,6.33
2018-08-14T03:40:19.928Z,7.20
2018-08-14T03:42:49.460Z,7.93
2018-08-14T03:45:18.572Z,4.87
2018-08-14T03:47:48.652Z,11.50
2018-08-14T03:50:17.557Z,5.73
2018-08-14T03:52:46.927Z,4.30
2018-08-14T03:55:17.241Z,7.73
2018-08-14T03:57:46.313Z,6.10
2018-08-14T04:00:16.725Z,11.70
2018-08-14T04:02:45.316Z,16.77
2018-08-14T04:05:14.486Z,10.57
2018-08-14T04:07:43.362Z,6.30
2018-08-14T04:10:12.950Z,7.77
2018-08-14T04:12:41.869Z,4.20
2018-08-14T04:15:12.464Z,13.17
2018-08-14T04:17:41.055Z,7.10
2018-08-14T04:20:11.073Z,7.03
2018-08-14T04:22:40.254Z,7.83
2018-08-14T04:25:09.811Z,6.10
2018-08-14T04:27:38.669Z,6.93
2018-08-14T04:30:09.088Z,5.83
2018-08-14T04:32:37.749Z,5.23
2018-08-14T04:35:06.908Z,5.93
2018-08-14T04:37:35.498Z,6.23
2018-08-14T04:40:05.251Z,4.50
2018-08-14T04:42:34.097Z,4.87
2018-08-14T04:45:02.889Z,10.70
2018-08-14T04:47:31.543Z,5.10
2018-08-14T04:50:00.179Z,6.33
2018-08-14T04:52:29.546Z,5.73
2018-08-14T04:54:58.153Z,6.90
2018-08-14T04:57:26.768Z,7.47
2018-08-14T04:59:56.488Z,7.30
2018-08-14T05:02:25.241Z,12.40
2018-08-14T05:04:54.359Z,20.87
2018-08-14T05:07:23.237Z,6.37
2018-08-14T05:09:51.861Z,19.03
2018-08-14T05:12:20.596Z,7.70
2018-08-14T05:14:49.600Z,5.93
2018-08-14T05:17:19.006Z,6.03
2018-08-14T05:19:47.894Z,10.47
2018-08-14T05:22:16.407Z,4.13
2018-08-14T05:24:45.277Z,7.80
2018-08-14T05:27:14.099Z,4.83
2018-08-14T05:29:42.725Z,3.40
2018-08-14T05:32:11.651Z,5.87
2018-08-14T05:34:40.763Z,9.73
2018-08-14T05:37:09.694Z,5.80
2018-08-14T05:39:38.328Z,3.57
2018-08-14T05:42:07.205Z,13.07
2018-08-14T05:44:35.818Z,5.17
2018-08-14T05:47:04.389Z,4.90
2018-08-14T05:49:33.289Z,4.37
2018-08-14T05:52:01.877Z,15.70
2018-08-14T05:54:30.529Z,4.30
2018-08-14T05:56:59.079Z,5.10
2018-08-14T05:59:27.684Z,4.13
2018-08-14T06:01:57.525Z,5.93
2018-08-14T06:04:26.326Z,4.80
2018-08-14T06:06:55.195Z,4.67
2018-08-14T06:09:24.386Z,5.83
2018-08-14T06:11:53.394Z,6.47
2018-08-14T06:14:22.996Z,8.00
2018-08-14T06:16:51.523Z,4.40
2018-08-14T06:19:20.125Z,5.40
2018-08-14T06:21:49.509Z,5.43
2018-08-14T06:24:18.335Z,8.97
2018-08-14T06:26:47.556Z,4.33
2018-08-14T06:29:16.164Z,9.73
2018-08-14T06:31:45.055Z,6.00
2018-08-14T06:34:14.035Z,7.93
2018-08-14T06:36:42.637Z,9.27
2018-08-14T06:39:14.265Z,7.80
2018-08-14T06:41:43.183Z,5.90
2018-08-14T06:44:12.002Z,5.67
2018-08-14T06:46:40.591Z,6.13
2018-08-14T06:49:09.436Z,4.73
2018-08-14T06:51:38.003Z,5.17
2018-08-14T06:54:06.923Z,7.97
2018-08-14T06:56:35.765Z,8.47
2018-08-14T06:59:04.422Z,8.70
2018-08-14T07:01:33.726Z,6.47
2018-08-14T07:04:02.355Z,6.20
2018-08-14T07:06:31.391Z,7.00
2018-08-14T07:08:59.990Z,6.77
2018-08-14T07:11:28.588Z,7.27
2018-08-14T07:13:57.194Z,5.47
2018-08-14T07:16:26.183Z,4.73
2018-08-14T07:18:55.377Z,7.47
2018-08-14T07:21:28.563Z,7.27
2018-08-14T07:23:57.777Z,10.90
2018-08-14T07:26:26.437Z,7.87
2018-08-14T07:28:55.406Z,7.47
2018-08-14T07:31:24.308Z,6.40
2018-08-14T07:33:52.853Z,4.83
2018-08-14T07:36:21.418Z,5.53
2018-08-14T07:38:50.761Z,7.93
2018-08-14T07:41:23.405Z,5.53
2018-08-14T07:43:53.730Z,7.03
2018-08-14T07:46:23.457Z,6.47
2018-08-14T07:48:52.432Z,16.80
2018-08-14T07:51:20.994Z,5.47
2018-08-14T07:53:50.710Z,6.13
2018-08-14T07:56:19.869Z,8.67
2018-08-14T07:58:48.505Z,8.73
2018-08-14T08:01:17.089Z,8.77
2018-08-14T08:03:45.609Z,6.70
2018-08-14T08:06:14.239Z,24.57
2018-08-14T08:08:43.141Z,23.37
2018-08-14T08:11:12.304Z,4.77
2018-08-14T08:13:41.860Z,9.77
2018-08-14T08:16:10.441Z,23.93
2018-08-14T08:18:39.019Z,6.90
2018-08-14T08:21:07.889Z,4.90
2018-08-14T08:23:37.045Z,10.07
2018-08-14T08:26:06.082Z,9.20
2018-08-14T08:28:34.930Z,5.10
2018-08-14T08:31:03.534Z,7.43
2018-08-14T08:33:33.120Z,10.97
2018-08-14T08:36:01.740Z,8.97
2018-08-14T08:38:30.291Z,7.47
2018-08-14T08:40:58.920Z,5.90
2018-08-14T08:43:28.136Z,7.33
2018-08-14T08:45:56.760Z,6.13
2018-08-14T08:48:26.620Z,11.13
2018-08-14T08:50:55.902Z,7.93
2018-08-14T08:53:24.435Z,6.17
2018-08-14T08:55:53.392Z,5.40
2018-08-14T08:58:22.259Z,14.13
2018-08-14T09:00:52.220Z,11.17
2018-08-14T09:03:20.759Z,23.80
2018-08-14T09:05:49.379Z,11.60
2018-08-14T09:08:18.795Z,7.60
2018-08-14T09:10:47.816Z,7.60
2018-08-14T09:13:18.418Z,14.60
2018-08-14T09:15:47.029Z,7.00
2018-08-14T09:18:15.657Z,7.33
2018-08-14T09:20:44.251Z,6.63
2018-08-14T09:23:13.599Z,8.43
2018-08-14T09:25:42.226Z,6.53
2018-08-14T09:28:10.836Z,5.47
2018-08-14T09:30:39.465Z,22.17
2018-08-14T09:33:08.495Z,11.43
2018-08-14T09:35:37.112Z,11.63
2018-08-14T09:38:06.152Z,6.53
2018-08-14T09:40:44.961Z,7.30
2018-08-14T09:43:13.695Z,7.97
2018-08-14T09:45:46.354Z,7.60
2018-08-14T09:48:15.008Z,6.37
2018-08-14T09:50:44.531Z,9.27
2018-08-14T09:53:13.119Z,9.87
2018-08-14T09:55:41.727Z,4.90
2018-08-14T09:58:11.569Z,4.73
2018-08-14T10:00:45.557Z,5.50
2018-08-14T10:03:21.061Z,6.67
2018-08-14T10:07:58.136Z,5.17
2018-08-14T10:10:26.756Z,8.03
2018-08-14T10:12:55.539Z,5.53
2018-08-14T10:15:24.121Z,7.70
2018-08-14T10:17:52.692Z,9.70
2018-08-14T10:20:24.679Z,5.40
2018-08-14T10:22:58.952Z,6.87
2018-08-14T10:25:33.421Z,6.40
2018-08-14T10:28:02.926Z,8.30
2018-08-14T10:30:32.325Z,9.93
2018-08-14T10:33:02.032Z,7.00
2018-08-14T10:35:31.010Z,6.77
2018-08-14T10:38:00.493Z,7.90
2018-08-14T10:40:29.275Z,7.53
2018-08-14T10:42:58.113Z,8.00
2018-08-14T10:45:26.671Z,7.40
2018-08-14T10:47:56.181Z,9.30
2018-08-14T10:50:25.691Z,8.97
2018-08-14T10:52:54.313Z,8.37
2018-08-14T10:55:22.944Z,8.33
2018-08-14T10:57:51.559Z,7.43
2018-08-14T11:00:23.380Z,7.80
2018-08-14T11:02:52.333Z,9.10
2018-08-14T11:05:22.256Z,10.67
2018-08-14T11:07:51.581Z,9.17
2018-08-14T11:10:23.396Z,7.93
2018-08-14T11:12:52.041Z,5.17
2018-08-14T11:15:20.672Z,9.27
2018-08-14T11:17:49.766Z,5.40
2018-08-14T11:20:20.897Z,6.37
2018-08-14T11:22:50.355Z,8.83
2018-08-14T11:25:19.206Z,7.07
2018-08-14T11:27:48.250Z,8.40
2018-08-14T11:30:24.709Z,8.03
2018-08-14T11:32:53.797Z,13.43
2018-08-14T11:35:23.452Z,17.40
2018-08-14T11:37:52.645Z,12.13
2018-08-14T11:40:21.940Z,10.73
2018-08-14T11:42:51.203Z,11.87
2018-08-14T11:45:23.129Z,15.60
2018-08-14T11:47:51.781Z,9.30
2018-08-14T11:50:21.018Z,14.93
2018-08-14T11:52:52.071Z,11.67
2018-08-14T11:55:21.961Z,12.50
2018-08-14T11:57:51.269Z,11.20
2018-08-14T12:00:24.700Z,13.77
2018-08-14T12:02:55.319Z,15.03
2018-08-14T12:05:24.033Z,13.60
2018-08-14T12:07:53.683Z,16.13
2018-08-14T12:10:23.181Z,10.63
2018-08-14T12:12:52.031Z,8.87
2018-08-14T12:15:20.614Z,12.67
2018-08-14T12:17:48.667Z,11.80
2018-08-14T12:20:21.496Z,10.70
2018-08-14T12:22:50.129Z,9.53
2018-08-14T12:25:19.523Z,11.83
2018-08-14T12:27:49.300Z,9.97
2018-08-14T12:30:25.803Z,11.20
2018-08-14T12:32:56.385Z,10.33
2018-08-14T12:35:25.269Z,7.70
2018-08-14T12:37:53.857Z,5.97
2018-08-14T12:40:22.847Z,6.97
2018-08-14T12:42:51.396Z,6.87
2018-08-14T12:45:22.670Z,7.43
2018-08-14T12:47:52.365Z,6.50
2018-08-14T12:52:55.808Z,4.67
2018-08-14T12:55:25.251Z,5.67
2018-08-14T12:57:54.119Z,7.17
2018-08-14T13:00:29.720Z,11.10
2018-08-14T13:02:58.350Z,7.17
2018-08-14T13:05:27.993Z,7.20
2018-08-14T13:07:56.831Z,8.77
2018-08-14T13:10:25.452Z,9.87
2018-08-14T13:12:54.322Z,8.47
2018-08-14T13:15:23.824Z,8.40
2018-08-14T13:18:10.222Z,8.03
2018-08-14T13:20:39.381Z,11.27
2018-08-14T13:23:13.072Z,7.10
2018-08-14T13:25:43.260Z,11.23
2018-08-14T13:28:12.677Z,7.13
2018-08-14T13:30:41.613Z,6.00
2018-08-14T13:33:10.623Z,16.33
2018-08-14T13:35:39.229Z,16.13
2018-08-14T13:38:08.949Z,8.60
2018-08-14T13:40:37.632Z,8.60
2018-08-14T13:43:06.889Z,8.43
2018-08-14T13:45:36.166Z,8.47
2018-08-14T13:48:06.203Z,13.67
2018-08-14T13:50:34.688Z,9.10
2018-08-14T13:53:04.324Z,8.43
2018-08-14T13:55:33.147Z,7.50
2018-08-14T13:58:02.859Z,8.37
2018-08-14T14:00:31.670Z,7.43
2018-08-14T14:03:00.307Z,6.93
2018-08-14T14:05:28.875Z,7.30
2018-08-14T14:07:57.778Z,9.23
2018-08-14T14:10:26.734Z,9.20
2018-08-14T14:12:55.352Z,7.83
2018-08-14T14:15:25.395Z,8.33
2018-08-14T14:17:55.181Z,9.77
2018-08-14T14:20:26.519Z,6.80
2018-08-14T14:22:55.271Z,7.27
2018-08-14T14:25:23.929Z,6.90
2018-08-14T14:27:52.527Z,8.07
2018-08-14T14:30:21.888Z,9.07
2018-08-14T14:32:50.783Z,7.37
2018-08-14T14:35:19.377Z,8.53
2018-08-14T14:37:48.035Z,9.03
2018-08-14T14:40:20.243Z,7.07
2018-08-14T14:42:49.335Z,9.40
2018-08-14T14:45:18.659Z,6.33
2018-08-14T14:47:47.829Z,6.87
2018-08-14T14:50:16.439Z,7.40
2018-08-14T14:52:45.533Z,6.57
2018-08-14T14:55:16.170Z,8.07
2018-08-14T14:57:45.106Z,7.87
2018-08-14T15:00:19.469Z,6.60
2018-08-14T15:02:49.510Z,6.40
2018-08-14T15:05:18.197Z,6.70
2018-08-14T15:07:48.487Z,8.67
2018-08-14T15:10:17.489Z,6.90
2018-08-14T15:12:46.800Z,6.93
2018-08-14T15:15:15.477Z,8.03
2018-08-14T15:17:44.638Z,5.77
2018-08-14T15:20:15.431Z,6.87
2018-08-14T15:22:44.882Z,6.63
2018-08-14T15:25:16.074Z,15.30
2018-08-14T15:29:27.730Z,9.80
2018-08-14T15:31:59.707Z,9.03
2018-08-14T15:34:30.449Z,11.27
2018-08-14T15:37:00.981Z,7.27
2018-08-14T15:39:30.036Z,5.40
2018-08-14T15:41:59.906Z,5.73
2018-08-14T15:44:29.006Z,8.60
2018-08-14T15:46:58.692Z,7.43
2018-08-14T15:49:28.541Z,9.30
2018-08-14T15:51:56.992Z,7.17
2018-08-14T15:54:25.633Z,6.07
2018-08-14T15:56:54.601Z,6.20
2018-08-14T15:59:23.257Z,10.93
2018-08-14T16:01:52.036Z,7.67
2018-08-14T16:04:25.292Z,8.53
2018-08-14T16:06:56.438Z,7.57
2018-08-14T16:09:25.062Z,6.53
2018-08-14T16:11:53.655Z,7.50
2018-08-14T16:14:22.214Z,4.90
2018-08-14T16:16:50.798Z,7.00
2018-08-14T16:19:19.807Z,4.57
2018-08-14T16:21:48.367Z,4.37
2018-08-14T16:24:18.187Z,5.63
2018-08-14T16:26:46.916Z,7.90
2018-08-14T16:29:15.479Z,5.90
2018-08-14T16:31:44.830Z,6.33
2018-08-14T16:34:13.873Z,5.03
2018-08-14T16:36:42.486Z,12.63
2018-08-14T16:39:12.625Z,6.07
2018-08-14T16:41:42.017Z,3.73
2018-08-14T16:44:10.862Z,4.00
2018-08-14T16:46:39.543Z,7.40
2018-08-14T16:49:08.341Z,6.57
2018-08-14T16:51:36.950Z,6.07
2018-08-14T16:54:05.782Z,4.07
2018-08-14T16:56:34.616Z,5.60
2018-08-14T16:59:03.212Z,6.43
2018-08-14T17:01:31.896Z,6.57
2018-08-14T17:04:01.097Z,13.10
2018-08-14T17:06:29.775Z,5.30
2018-08-14T17:08:58.311Z,5.43
2018-08-14T17:11:27.556Z,6.13
2018-08-14T17:13:56.651Z,5.97
2018-08-14T17:16:26.564Z,9.27
2018-08-14T17:18:55.247Z,3.93
2018-08-14T17:24:00.304Z,3.73
2018-08-14T17:26:29.833Z,3.47
2018-08-14T17:28:59.637Z,4.33
2018-08-14T17:31:28.586Z,4.33
2018-08-14T17:33:57.725Z,15.37
2018-08-14T17:36:27.084Z,10.00
2018-08-14T17:38:55.665Z,6.70
2018-08-14T17:41:24.266Z,4.60
2018-08-14T17:43:52.888Z,4.83
2018-08-14T17:46:21.494Z,5.00
2018-08-14T17:48:51.140Z,4.83
2018-08-14T17:51:21.013Z,5.10
2018-08-14T17:53:50.576Z,5.07
2018-08-14T17:56:19.606Z,7.90
2018-08-14T17:58:50.607Z,18.77
2018-08-14T18:01:20.483Z,13.00
2018-08-14T18:03:49.253Z,7.17
2018-08-14T18:06:17.927Z,14.90
2018-08-14T18:08:46.521Z,16.37
2018-08-14T18:11:23.899Z,13.40
2018-08-14T18:13:53.576Z,31.53
2018-08-14T18:16:22.201Z,10.00
2018-08-14T18:18:51.802Z,14.13
2018-08-14T18:21:20.770Z,7.23
2018-08-14T18:23:49.632Z,8.30
2018-08-14T18:26:18.727Z,19.03
2018-08-14T18:28:48.113Z,16.03
2018-08-14T18:31:16.727Z,11.97
2018-08-14T18:33:45.340Z,15.67
2018-08-14T18:36:15.912Z,11.93
2018-08-14T18:38:44.804Z,12.50
2018-08-14T18:41:13.843Z,10.43
2018-08-14T18:43:42.865Z,9.80
2018-08-14T18:46:11.957Z,13.03
2018-08-14T18:48:44.507Z,10.53
2018-08-14T18:51:13.492Z,8.03
2018-08-14T18:53:46.391Z,9.73
2018-08-14T18:56:15.382Z,9.00
2018-08-14T18:58:44.157Z,10.40
2018-08-14T19:01:12.718Z,10.83
2018-08-14T19:03:45.304Z,10.97
2018-08-14T19:06:13.990Z,10.03
2018-08-14T19:08:42.686Z,14.20
2018-08-14T19:11:13.332Z,8.97
2018-08-14T19:13:41.924Z,16.23
2018-08-14T19:16:11.349Z,9.17
2018-08-14T19:18:39.927Z,9.83
2018-08-14T19:21:09.314Z,10.93
2018-08-14T19:23:37.965Z,10.97
2018-08-14T19:26:06.799Z,8.60
2018-08-14T19:28:35.339Z,21.27
2018-08-14T19:31:03.938Z,19.50
2018-08-14T19:33:32.477Z,8.80
2018-08-14T19:36:01.777Z,8.43
2018-08-14T19:38:31.112Z,15.20
2018-08-14T19:41:00.461Z,8.50
2018-08-14T19:43:29.412Z,32.97
2018-08-14T19:45:58.274Z,33.90
2018-08-14T19:48:26.896Z,21.43
2018-08-14T19:50:55.471Z,21.63
2018-08-14T19:53:25.582Z,25.53
2018-08-14T19:55:54.153Z,11.17
2018-08-14T19:58:23.107Z,16.03
2018-08-14T20:00:51.747Z,13.10
2018-08-14T20:03:20.459Z,18.33
2018-08-14T20:05:49.014Z,16.87
2018-08-14T20:08:17.647Z,16.90
2018-08-14T20:10:46.506Z,15.63
2018-08-14T20:13:16.533Z,11.60
2018-08-14T20:15:52.548Z,23.13
2018-08-14T20:18:21.517Z,10.07
2018-08-14T20:20:50.615Z,12.93
2018-08-14T20:23:19.583Z,14.43
2018-08-14T20:25:48.811Z,21.33
2018-08-14T20:28:17.653Z,19.33
2018-08-14T20:30:46.780Z,23.80
2018-08-14T20:33:15.412Z,21.30
2018-08-14T20:35:44.588Z,17.13
2018-08-14T20:38:13.464Z,17.80
2018-08-14T20:40:42.080Z,15.73
2018-08-14T20:43:10.686Z,20.50
2018-08-14T20:45:39.904Z,22.37
2018-08-14T20:48:09.299Z,19.70
2018-08-14T20:50:37.974Z,21.90
2018-08-14T20:53:06.777Z,22.23
2018-08-14T20:55:36.621Z,28.53
2018-08-14T20:58:05.230Z,34.90
2018-08-14T21:00:33.977Z,23.33
2018-08-14T21:03:02.991Z,19.73
2018-08-14T21:05:31.852Z,21.70
2018-08-14T21:08:02.072Z,20.97
2018-08-14T21:10:31.144Z,25.10
2018-08-14T21:13:01.584Z,23.73
2018-08-14T21:15:35.327Z,18.40
2018-08-14T21:18:04.976Z,25.13
2018-08-14T21:20:33.564Z,21.67
2018-08-14T21:23:02.556Z,19.87
2018-08-14T21:25:31.407Z,22.47
2018-08-14T21:27:59.976Z,24.17
2018-08-14T21:30:29.459Z,35.63
2018-08-14T21:32:58.098Z,25.00
2018-08-14T21:35:27.325Z,27.17
2018-08-14T21:37:55.944Z,30.33
2018-08-14T21:40:24.520Z,28.77
2018-08-14T21:42:54.096Z,34.53
2018-08-14T21:45:23.130Z,33.00
2018-08-14T21:47:52.040Z,37.67
2018-08-14T21:50:21.816Z,31.70
2018-08-14T21:52:50.706Z,34.17
2018-08-14T21:55:19.613Z,32.33
2018-08-14T21:57:48.175Z,33.67
2018-08-14T22:00:29.996Z,32.03
2018-08-14T22:02:58.858Z,37.13
2018-08-14T22:05:27.466Z,36.13
2018-08-14T22:07:56.438Z,37.83
2018-08-14T22:10:25.628Z,37.33
2018-08-14T22:12:54.184Z,39.00
2018-08-14T22:15:23.246Z,39.20
2018-08-14T22:17:52.090Z,57.97
2018-08-14T22:20:20.705Z,50.97
2018-08-14T22:22:50.216Z,37.97
2018-08-14T22:25:19.101Z,34.63
2018-08-14T22:27:47.658Z,35.03
2018-08-14T22:30:16.653Z,34.07
2018-08-14T22:32:47.045Z,45.57
2018-08-14T22:35:15.658Z,36.50
2018-08-14T22:37:44.215Z,37.63
2018-08-14T22:40:12.786Z,36.00
2018-08-14T22:42:41.358Z,35.27
2018-08-14T22:45:11.156Z,38.83
2018-08-14T22:47:40.741Z,35.33
2018-08-14T22:50:10.077Z,35.53
2018-08-14T22:52:38.828Z,29.03
2018-08-14T22:55:09.029Z,33.97
2018-08-14T22:57:38.053Z,32.10
2018-08-14T23:00:08.076Z,26.63
2018-08-14T23:02:36.585Z,26.50
2018-08-14T23:05:05.904Z,31.53
2018-08-14T23:07:34.548Z,25.20
2018-08-14T23:10:03.961Z,22.57
2018-08-14T23:12:33.010Z,21.60
2018-08-14T23:15:01.855Z,17.47
2018-08-14T23:17:30.451Z,20.33
2018-08-14T23:19:59.372Z,18.93
2018-08-14T23:22:28.316Z,18.90
2018-08-14T23:24:56.939Z,20.27
2018-08-14T23:27:25.527Z,20.87
2018-08-14T23:29:54.420Z,20.30
2018-08-14T23:32:22.978Z,19.83
2018-08-14T23:34:51.550Z,16.80
2018-08-14T23:37:21.828Z,19.43
2018-08-14T23:39:50.373Z,16.90
2018-08-14T23:42:18.924Z,18.53
2018-08-14T23:44:47.473Z,18.80
2018-08-14T23:47:16.334Z,19.70
2018-08-14T23:49:44.906Z,19.93
2018-08-14T23:52:13.909Z,19.67
2018-08-14T23:54:42.734Z,21.47
2018-08-14T23:57:11.518Z,23.57
2018-08-14T23:59:40.152Z,18.30
